• Join FlightAware (Why Join?)
  • Login
  • US Flag 
09:05PM EDT


 

Airport Tracker/Info


-or-


 

Live Flight TrackerFlight Track Log ✈ CTL22 ✈ 16-Apr-2013 ✈ KBKL - KGRR

Flight Track Log - Related Links

Times and Time Zones

All times are in EDT time to prevent confusion due to time zone crossing. See the CTL22 flight status page for this flight to view local times or setup timezone preferences in your user account.

Time Position Orientation Groundspeed Altitude Reporting Facility
EDT Latitude Longitude Course Direction KTS MPH feet Rate Location/Type
09:57PM 42.3147 -83.5575 297° West 150 173 6,000  Level FAA TRACON SMA TRACON (SMA)
09:57PM 42.3200 -83.5733 294° West 149 171 6,000  Level FAA TRACON SMA TRACON (SMA)
09:57PM 42.3250 -83.5892 293° West 149 171 6,000  Level FAA TRACON SMA TRACON (SMA)
09:58PM 42.3317 -83.6089 295° West 151 174 6,000  Level FAA TRACON SMA TRACON (SMA)
09:58PM 42.3372 -83.6247 295° West 150 173 6,000  Level FAA TRACON SMA TRACON (SMA)
09:58PM 42.3428 -83.6406 295° West 152 175 6,000  Level FAA TRACON SMA TRACON (SMA)
09:59PM 42.3494 -83.6606 294° West 151 174 6,000  Level FAA TRACON SMA TRACON (SMA)
09:59PM 42.3547 -83.6764 294° West 151 174 6,000  Level FAA TRACON SMA TRACON (SMA)
09:59PM 42.3597 -83.6925 293° West 151 174 6,000  Level FAA TRACON SMA TRACON (SMA)
10:00PM 42.3664 -83.7128 294° West 152 175 6,000  Level FAA TRACON SMA TRACON (SMA)
10:00PM 42.3717 -83.7289 294° West 152 175 6,000  Level FAA TRACON SMA TRACON (SMA)
10:00PM 42.3769 -83.7450 294° West 152 175 6,000  Level FAA TRACON SMA TRACON (SMA)
10:01PM 42.3836 -83.7653 294° West 153 176 6,000  Level FAA TRACON SMA TRACON (SMA)
10:01PM 42.3889 -83.7814 294° West 153 176 6,000  Level FAA TRACON SMA TRACON (SMA)
10:01PM 42.3944 -83.7972 295° West 152 175 6,000  Level FAA TRACON SMA TRACON (SMA)
10:02PM 42.3034 -83.8318 297° West  Level Estimated
10:02PM 42.4019 -83.8167 298° West 152 175 6,000  Level FAA TRACON SMA TRACON (SMA)
10:02PM 42.4086 -83.8319 301° West 153 176 6,000  Level FAA TRACON SMA TRACON (SMA)
10:02PM 42.4153 -83.8469 301° West 152 175 6,000  Level FAA TRACON SMA TRACON (SMA)
10:03PM 42.4233 -83.8661 300° West 152 175 6,000  Level FAA TRACON SMA TRACON (SMA)
10:03PM 42.4297 -83.8814 300° West 152 175 6,000  Level FAA TRACON SMA TRACON (SMA)
10:03PM 42.4342 -83.8981 290° West 154 177 6,000  Level FAA TRACON SMA TRACON (SMA)
10:04PM 42.4406 -83.9181 293° West 151 174 6,000  Level FAA TRACON SMA TRACON (SMA)
10:04PM 42.4514 -83.9525 293° West 153 176 6,000  Level FAA TRACON SMA TRACON (SMA)
10:05PM 42.4561 -83.9692 291° West 152 175 6,000  Level FAA TRACON SMA TRACON (SMA)
10:05PM 42.4619 -83.9897 291° West 152 175 6,000  Level FAA TRACON SMA TRACON (SMA)
10:05PM 42.4672 -84.0058 294° West 153 176 6,000  Level FAA TRACON SMA TRACON (SMA)
10:06PM 42.4725 -84.0222 294° West 153 176 6,000  Level FAA TRACON SMA TRACON (SMA)
10:06PM 42.4781 -84.0433 290° West 154 177 6,000  Level FAA TRACON SMA TRACON (SMA)
10:06PM 42.4822 -84.0606 288° West 155 178 6,000  Level FAA TRACON SMA TRACON (SMA)
10:07PM 42.4864 -84.0775 288° West 154 177 6,000  Level FAA TRACON SMA TRACON (SMA)
10:07PM 42.4925 -84.0986 291° West 155 178 6,000  Level FAA TRACON SMA TRACON (SMA)
10:07PM 42.4972 -84.1153 291° West 154 177 6,000  Level FAA TRACON SMA TRACON (SMA)
10:08PM 42.5014 -84.1325 288° West 155 178 6,000  Level FAA TRACON SMA TRACON (SMA)
10:08PM 42.5056 -84.1494 288° West 156 180 6,000  Level FAA TRACON SMA TRACON (SMA)
10:08PM 42.5111 -84.1708 289° West 155 178 6,000  Level FAA TRACON SMA TRACON (SMA)
10:09PM 42.5158 -84.1878 291° West 155 178 6,000  Level FAA TRACON SMA TRACON (SMA)
10:09PM 42.5222 -84.2081 293° West 154 177 6,000  Level FAA TRACON SMA TRACON (SMA)
10:09PM 42.5269 -84.2247 291° West 154 177 6,000  Level FAA TRACON SMA TRACON (SMA)
10:10PM 42.5322 -84.2411 294° West 155 178 6,000  Level FAA TRACON SMA TRACON (SMA)
10:10PM 42.5394 -84.2617 295° West 155 178 6,000  Level FAA TRACON SMA TRACON (SMA)
10:10PM 42.5458 -84.2778 298° West 156 180 6,000  Level FAA TRACON SMA TRACON (SMA)
10:11PM 42.5514 -84.2942 295° West 156 180 6,000  Level FAA TRACON SMA TRACON (SMA)
10:11PM 42.5583 -84.3150 294° West 156 180 6,000  Level FAA TRACON SMA TRACON (SMA)
10:11PM 42.5644 -84.3311 297° West 156 180 6,000  Level FAA TRACON SMA TRACON (SMA)
10:12PM 42.5708 -84.3472 298° West 157 181 6,000  Level FAA TRACON SMA TRACON (SMA)
10:12PM 42.5769 -84.3636 297° West 157 181 6,000  Level FAA TRACON SMA TRACON (SMA)
10:12PM 42.5853 -84.3831 300° West 156 180 6,000  Level FAA TRACON SMA TRACON (SMA)
10:13PM 42.5919 -84.3986 300° West 155 178 6,000  Level FAA TRACON SMA TRACON (SMA)
10:13PM 42.6003 -84.4183 300° West 156 180 6,000  Level FAA TRACON SMA TRACON (SMA)
10:13PM 42.6033 -84.4264 297° West 156 180 6,000  Level FAA TRACON SMA TRACON (SMA)
10:14PM 42.6033 -84.4264 14° North 156 180 6,000  Level FAA TRACON SMA TRACON (SMA)
10:15PM 42.6317 -84.5306 290° West 158 182 6,100  Climbing Chicago Center
10:16PM 42.6483 -84.5856 292° West 159 183 6,100  Level Chicago Center
10:17PM 42.6575 -84.6411 283° West 155 178 6,100  Level Chicago Center
10:18PM 42.6731 -84.7089 287° West 156 180 6,100  Level Chicago Center
10:19PM 42.6861 -84.7658 287° West 158 182 6,100  Level Chicago Center
10:20PM 42.6997 -84.8219 288° West 158 182 6,100  Level Chicago Center
10:21PM 42.7119 -84.8789 286° West 158 182 6,100  Level Chicago Center
10:22PM 42.7242 -84.9339 287° West 155 178 6,100  Level Chicago Center
10:23PM 42.7369 -84.9892 287° West 153 176 6,100  Level Chicago Center
10:24PM 42.7503 -85.0447 288° West 155 178 6,100  Level Chicago Center
10:25PM 42.7706 -85.0942 299° West 152 175 6,100 -240 Level Chicago Center
10:26PM 42.7878 -85.1506 293° West 158 182 5,700 -540 Descending Chicago Center
10:27PM 42.8017 -85.2119 287° West 168 193 5,000 -1,080 Descending Chicago Center
10:28PM 42.8211 -85.2922 288° West 183 211 3,600 -1,200 Descending Chicago Center
10:29PM 42.8383 -85.3631 288° West 194 223 2,600 -900 Descending Chicago Center
10:30PM 42.8558 -85.4281 290° West 190 219 1,800 -660 Descending Chicago Center
10:31PM 42.8725 -85.4797 294° West 167 192 1,300 -540 Descending Chicago Center
10:32PM 42.8833 -85.5172 292° West 129 148 800 -540 Descending Chicago Center
10:34PM 42.8808 -85.5228 270° West  Level Estimated